Time;durP1;ratioP1;P1;durP2;ratioP2;P2;SDS_P1;SDS_P2;PMS_P1;PMS_P2;Temp;Humidity;BMP_temperature;BMP_pressure;BME280_temperature;BME280_humidity;BME280_pressure;Samples;Min_cycle;Max_cycle;Signal;HPM_P1;HPM_P2
2024/01/18 00:01:23;;;;;;;;;;;-0.40;99.90;;;;;;8454739;28;20306;-72
2024/01/18 00:05:25;;;;;;;;;;;-0.40;99.90;;;;;;8459237;28;19931;-72
2024/01/18 00:09:27;;;;;;;;;;;-0.40;99.90;;;;;;8453790;28;19985;-72
2024/01/18 00:13:28;;;;;;;;;;;-0.40;99.90;;;;;;8448914;28;19932;-72
2024/01/18 00:17:30;;;;;;;;;;;-0.40;99.90;;;;;;8445840;28;20014;-72
2024/01/18 00:21:32;;;;;;;;;;;-0.40;99.90;;;;;;8449208;28;20426;-72
2024/01/18 00:25:34;;;;;;;;;;;-0.40;99.90;;;;;;8446915;28;19927;-72
2024/01/18 00:29:35;;;;;;;;;;;-0.40;99.90;;;;;;8433377;28;19930;-72
2024/01/18 00:33:39;;;;;;;;;;;-0.40;99.90;;;;;;8450778;28;20433;-72
2024/01/18 00:37:40;;;;;;;;;;;-0.50;99.90;;;;;;8452082;28;19972;-72
2024/01/18 00:41:42;;;;;;;;;;;-0.50;99.90;;;;;;8432208;28;19924;-72
2024/01/18 00:45:44;;;;;;;;;;;-0.50;99.90;;;;;;8441404;28;19923;-72
2024/01/18 00:49:46;;;;;;;;;;;-0.60;99.90;;;;;;8435541;28;19930;-72
2024/01/18 00:53:47;;;;;;;;;;;-0.60;99.90;;;;;;8454475;28;20012;-72
2024/01/18 00:57:51;;;;;;;;;;;-0.60;99.90;;;;;;8438881;28;19978;-72
2024/01/18 01:02:14;;;;;;;;;;;-0.70;99.90;;;;;;8453929;28;19924;-72
2024/01/18 01:06:16;;;;;;;;;;;-0.60;99.90;;;;;;8442366;28;19924;-72
2024/01/18 01:10:18;;;;;;;;;;;-0.70;99.90;;;;;;8450035;28;19927;-72
2024/01/18 01:14:19;;;;;;;;;;;-0.60;99.90;;;;;;8449240;28;19936;-72
2024/01/18 01:18:21;;;;;;;;;;;-0.70;99.90;;;;;;8447306;28;19931;-72
2024/01/18 01:22:23;;;;;;;;;;;-0.70;99.90;;;;;;8440698;28;20481;-72
2024/01/18 01:26:24;;;;;;;;;;;-0.70;99.90;;;;;;8448515;28;19924;-72
2024/01/18 01:30:26;;;;;;;;;;;-0.70;99.90;;;;;;8448538;27;20020;-72
2024/01/18 01:34:28;;;;;;;;;;;-0.80;99.90;;;;;;8451464;28;19931;-72
2024/01/18 01:38:29;;;;;;;;;;;-0.90;99.90;;;;;;8453488;28;20399;-72
2024/01/18 01:42:31;;;;;;;;;;;-0.90;99.90;;;;;;8449090;28;19924;-72
2024/01/18 01:46:33;;;;;;;;;;;-0.90;99.90;;;;;;8434958;28;19969;-72
2024/01/18 01:50:35;;;;;;;;;;;-1.00;99.90;;;;;;8448079;28;19924;-72
2024/01/18 01:54:37;;;;;;;;;;;-1.00;99.90;;;;;;8442373;28;19923;-72
2024/01/18 01:58:39;;;;;;;;;;;-1.00;99.90;;;;;;8458375;28;20011;-72
2024/01/18 02:02:41;;;;;;;;;;;-1.00;99.90;;;;;;8456612;28;19924;-72
2024/01/18 02:06:44;;;;;;;;;;;-1.00;99.90;;;;;;8442644;28;19972;-72
2024/01/18 02:10:45;;;;;;;;;;;-1.10;99.90;;;;;;8440487;28;19927;-72
2024/01/18 02:14:47;;;;;;;;;;;-1.10;99.90;;;;;;8442519;28;19980;-72
2024/01/18 02:19:14;;;;;;;;;;;-1.20;99.90;;;;;;8468256;27;19924;-72
2024/01/18 02:23:16;;;;;;;;;;;-1.20;99.90;;;;;;8456471;27;19924;-71
2024/01/18 02:27:19;;;;;;;;;;;-1.20;99.90;;;;;;8437956;28;19977;-72
2024/01/18 02:31:21;;;;;;;;;;;-1.30;99.90;;;;;;8458348;28;19967;-72
2024/01/18 02:35:23;;;;;;;;;;;-1.30;99.90;;;;;;8449077;28;19923;-72
2024/01/18 02:39:25;;;;;;;;;;;-1.30;99.90;;;;;;8458838;28;19977;-72
2024/01/18 02:43:26;;;;;;;;;;;-1.30;99.90;;;;;;8439612;27;19923;-72
2024/01/18 02:47:28;;;;;;;;;;;-1.30;99.90;;;;;;8438337;28;19924;-72
2024/01/18 02:51:33;;;;;;;;;;;-1.30;99.90;;;;;;8459406;28;20480;-71
2024/01/18 02:55:34;;;;;;;;;;;-1.30;99.90;;;;;;8458865;28;20294;-72
2024/01/18 02:59:36;;;;;;;;;;;-1.40;99.90;;;;;;8437810;28;19977;-72
2024/01/18 03:03:38;;;;;;;;;;;-1.40;99.90;;;;;;8440030;27;20369;-72
2024/01/18 03:07:40;;;;;;;;;;;-1.50;99.90;;;;;;8456344;28;20345;-71
2024/01/18 03:11:41;;;;;;;;;;;-1.40;99.90;;;;;;8463788;27;19928;-71
2024/01/18 03:15:43;;;;;;;;;;;-1.50;99.90;;;;;;8442885;28;19928;-71
2024/01/18 03:19:45;;;;;;;;;;;-1.50;99.90;;;;;;8446528;28;20074;-71
2024/01/18 03:23:47;;;;;;;;;;;-1.50;99.90;;;;;;8446736;28;19930;-71
2024/01/18 03:27:48;;;;;;;;;;;-1.60;99.90;;;;;;8425061;28;19969;-71
2024/01/18 03:31:50;;;;;;;;;;;-1.60;99.90;;;;;;8450672;27;19928;-72
2024/01/18 03:35:52;;;;;;;;;;;-1.60;99.90;;;;;;8456905;28;19924;-71
2024/01/18 03:40:15;;;;;;;;;;;-1.60;99.90;;;;;;8456530;28;19946;-71
2024/01/18 03:44:18;;;;;;;;;;;-1.70;99.90;;;;;;8440995;28;19924;-72
2024/01/18 03:48:20;;;;;;;;;;;-1.70;99.90;;;;;;8439017;28;19932;-71
2024/01/18 03:52:21;;;;;;;;;;;-1.70;99.90;;;;;;8442654;28;19924;-72
2024/01/18 03:56:23;;;;;;;;;;;-1.80;99.90;;;;;;8457613;28;20378;-71
2024/01/18 04:00:25;;;;;;;;;;;-1.80;99.90;;;;;;8446099;28;19923;-71
2024/01/18 04:04:26;;;;;;;;;;;-1.90;99.90;;;;;;8451730;28;19928;-71
2024/01/18 04:08:31;;;;;;;;;;;-1.90;99.90;;;;;;8457915;28;19924;-71
2024/01/18 04:12:34;;;;;;;;;;;-1.90;99.90;;;;;;8438936;28;19930;-71
2024/01/18 04:16:36;;;;;;;;;;;-1.90;99.90;;;;;;8454613;28;19925;-71
2024/01/18 04:20:37;;;;;;;;;;;-2.00;99.90;;;;;;8433746;28;19924;-71
2024/01/18 04:24:39;;;;;;;;;;;-2.00;99.90;;;;;;8438145;28;19931;-71
2024/01/18 04:28:41;;;;;;;;;;;-2.10;99.90;;;;;;8443728;28;19924;-71
2024/01/18 04:32:42;;;;;;;;;;;-2.10;99.90;;;;;;8436100;27;20302;-71
2024/01/18 04:36:44;;;;;;;;;;;-2.10;99.90;;;;;;8455701;28;19927;-70
2024/01/18 04:40:46;;;;;;;;;;;-2.20;99.90;;;;;;8456592;28;19932;-71
2024/01/18 04:44:47;;;;;;;;;;;-2.20;99.90;;;;;;8458587;28;20406;-71
2024/01/18 04:48:49;;;;;;;;;;;-2.20;99.90;;;;;;8459461;28;19930;-70
2024/01/18 04:52:51;;;;;;;;;;;-2.20;99.90;;;;;;8455016;28;19935;-70
2024/01/18 04:56:53;;;;;;;;;;;-2.10;99.90;;;;;;8440546;28;19923;-71
2024/01/18 05:00:55;;;;;;;;;;;-2.20;99.90;;;;;;8436739;28;20328;-70
2024/01/18 05:04:57;;;;;;;;;;;-2.20;99.90;;;;;;8454039;28;19928;-71
2024/01/18 05:08:59;;;;;;;;;;;-2.20;99.90;;;;;;8439510;28;19923;-70
2024/01/18 05:13:00;;;;;;;;;;;-2.20;99.90;;;;;;8456760;28;19930;-71
2024/01/18 05:17:10;;;;;;;;;;;-2.20;99.90;;;;;;8436748;28;19985;-71
2024/01/18 05:21:12;;;;;;;;;;;-2.20;99.90;;;;;;8441171;27;19930;-71
2024/01/18 05:25:14;;;;;;;;;;;-2.20;99.90;;;;;;8438681;28;19931;-70
2024/01/18 05:29:16;;;;;;;;;;;-2.30;99.90;;;;;;8415350;28;19924;-70
2024/01/18 05:33:18;;;;;;;;;;;-2.30;99.90;;;;;;8438106;28;19924;-70
2024/01/18 05:37:22;;;;;;;;;;;-2.30;99.90;;;;;;8428169;28;19928;-70
2024/01/18 05:41:24;;;;;;;;;;;-2.30;99.90;;;;;;8413242;28;19950;-70
2024/01/18 05:45:26;;;;;;;;;;;-2.30;99.90;;;;;;8434088;28;19924;-70
2024/01/18 05:49:28;;;;;;;;;;;-2.30;99.90;;;;;;8413106;28;19979;-70
2024/01/18 05:53:30;;;;;;;;;;;-2.30;99.90;;;;;;8427995;28;19928;-70
2024/01/18 05:57:34;;;;;;;;;;;-2.40;99.90;;;;;;8419073;28;20396;-70
2024/01/18 06:01:35;;;;;;;;;;;-2.40;99.90;;;;;;8428543;28;19924;-70
2024/01/18 06:05:37;;;;;;;;;;;-2.40;99.90;;;;;;8416495;28;19932;-70
2024/01/18 06:09:39;;;;;;;;;;;-2.40;99.90;;;;;;8410579;28;19932;-70
2024/01/18 06:13:40;;;;;;;;;;;-2.40;99.90;;;;;;8418833;28;19973;-70
2024/01/18 06:17:42;;;;;;;;;;;-2.40;99.90;;;;;;8440567;28;19938;-71
2024/01/18 06:21:44;;;;;;;;;;;-2.40;99.90;;;;;;8430727;28;19930;-70
2024/01/18 06:25:46;;;;;;;;;;;-2.50;99.90;;;;;;8445679;28;20029;-70
2024/01/18 06:29:47;;;;;;;;;;;-2.60;99.90;;;;;;8449941;28;19923;-70
2024/01/18 06:33:49;;;;;;;;;;;-2.50;99.90;;;;;;8446086;28;19924;-70
2024/01/18 06:37:51;;;;;;;;;;;-2.50;99.90;;;;;;8425579;28;19924;-70
2024/01/18 06:41:53;;;;;;;;;;;-2.60;99.90;;;;;;8421642;28;19992;-70
2024/01/18 06:45:55;;;;;;;;;;;-2.60;99.90;;;;;;8435127;27;19966;-70
2024/01/18 06:49:57;;;;;;;;;;;-2.60;99.90;;;;;;8443837;27;19975;-71
2024/01/18 06:53:59;;;;;;;;;;;-2.60;99.90;;;;;;8444055;28;19928;-70
2024/01/18 06:58:02;;;;;;;;;;;-2.70;99.90;;;;;;8427110;27;20420;-70
2024/01/18 07:02:04;;;;;;;;;;;-2.70;99.90;;;;;;8417686;28;20044;-70
2024/01/18 07:06:06;;;;;;;;;;;-2.70;99.90;;;;;;8441914;27;19931;-70
2024/01/18 07:10:07;;;;;;;;;;;-2.70;99.90;;;;;;8441240;27;20339;-70
2024/01/18 07:14:09;;;;;;;;;;;-2.80;99.90;;;;;;8452272;28;19928;-70
2024/01/18 07:18:11;;;;;;;;;;;-2.80;99.90;;;;;;8426729;28;19939;-70
2024/01/18 07:22:14;;;;;;;;;;;-2.80;99.90;;;;;;8457606;27;19928;-71
2024/01/18 07:26:16;;;;;;;;;;;-2.80;99.90;;;;;;8433455;28;19930;-70
2024/01/18 07:30:17;;;;;;;;;;;-2.80;99.90;;;;;;8439773;27;19931;-70
2024/01/18 07:34:19;;;;;;;;;;;-2.80;99.90;;;;;;8461246;28;19951;-70
2024/01/18 07:38:21;;;;;;;;;;;-2.80;99.90;;;;;;8457591;28;19928;-70
2024/01/18 07:42:23;;;;;;;;;;;-2.80;99.90;;;;;;8441944;28;19924;-70
2024/01/18 07:46:26;;;;;;;;;;;-2.80;99.90;;;;;;8443736;28;20407;-71
2024/01/18 07:50:28;;;;;;;;;;;-2.80;99.90;;;;;;8459805;28;19928;-70
2024/01/18 07:54:35;;;;;;;;;;;-2.80;99.90;;;;;;8435792;28;19931;-70
2024/01/18 07:58:40;;;;;;;;;;;-2.70;99.90;;;;;;8443375;28;20302;-71
2024/01/18 08:02:42;;;;;;;;;;;-2.70;99.90;;;;;;8459221;28;19932;-70
2024/01/18 08:06:44;;;;;;;;;;;-2.70;99.90;;;;;;8460687;28;20507;-71
2024/01/18 08:10:46;;;;;;;;;;;-2.70;99.90;;;;;;8436430;28;20283;-70
2024/01/18 08:14:48;;;;;;;;;;;-2.70;99.90;;;;;;8461822;27;19946;-70
2024/01/18 08:18:50;;;;;;;;;;;-2.70;99.90;;;;;;8443159;28;20290;-70
2024/01/18 08:22:52;;;;;;;;;;;-2.70;99.90;;;;;;8458276;28;19924;-70
2024/01/18 08:26:54;;;;;;;;;;;-2.60;99.90;;;;;;8447586;28;19924;-70
2024/01/18 08:30:57;;;;;;;;;;;-2.60;99.90;;;;;;8465006;27;19931;-70
2024/01/18 08:34:59;;;;;;;;;;;-2.50;99.90;;;;;;8458058;27;19980;-71
2024/01/18 08:39:01;;;;;;;;;;;-2.50;99.90;;;;;;8460841;27;20413;-71
2024/01/18 08:43:03;;;;;;;;;;;-2.40;99.90;;;;;;8431753;28;20416;-70
2024/01/18 08:47:04;;;;;;;;;;;-2.40;99.90;;;;;;8443355;27;20275;-70
2024/01/18 08:51:13;;;;;;;;;;;-2.40;99.90;;;;;;8457476;28;20273;-70
2024/01/18 08:55:15;;;;;;;;;;;-2.20;99.90;;;;;;8451082;27;19949;-70
2024/01/18 08:59:35;;;;;;;;;;;-2.10;99.90;;;;;;8451906;28;19924;-70
2024/01/18 09:03:44;;;;;;;;;;;-2.00;99.90;;;;;;8444850;28;19923;-71
2024/01/18 09:07:46;;;;;;;;;;;-1.90;99.90;;;;;;8445751;28;19931;-70
2024/01/18 09:11:47;;;;;;;;;;;-1.70;99.90;;;;;;8449111;28;19975;-70
2024/01/18 09:15:51;;;;;;;;;;;-1.40;99.90;;;;;;8449865;28;20390;-70
2024/01/18 09:19:53;;;;;;;;;;;-1.00;99.90;;;;;;8452375;28;20333;-70
2024/01/18 09:23:55;;;;;;;;;;;-0.60;99.90;;;;;;8456014;28;19970;-71
2024/01/18 09:27:56;;;;;;;;;;;-0.10;99.90;;;;;;8443996;28;19923;-71
2024/01/18 09:31:58;;;;;;;;;;;0.40;99.90;;;;;;8457748;28;19928;-71
2024/01/18 09:36:01;;;;;;;;;;;0.90;99.90;;;;;;8455713;28;19923;-71
2024/01/18 09:40:04;;;;;;;;;;;1.30;99.90;;;;;;8457509;28;19923;-71
2024/01/18 09:44:07;;;;;;;;;;;1.60;99.90;;;;;;8458695;28;20317;-71
2024/01/18 09:48:08;;;;;;;;;;;1.80;99.90;;;;;;8450343;28;19977;-71
2024/01/18 09:52:11;;;;;;;;;;;1.90;99.90;;;;;;8437867;28;20018;-71
2024/01/18 09:56:22;;;;;;;;;;;1.90;99.90;;;;;;8436843;28;19927;-71
2024/01/18 10:00:26;;;;;;;;;;;2.00;99.90;;;;;;8451686;28;20266;-71
2024/01/18 10:04:30;;;;;;;;;;;2.00;99.90;;;;;;8457812;28;19923;-71
2024/01/18 10:08:32;;;;;;;;;;;2.00;99.90;;;;;;8430915;28;19924;-71
2024/01/18 10:12:34;;;;;;;;;;;2.10;99.90;;;;;;8449887;28;19935;-71
2024/01/18 10:16:37;;;;;;;;;;;2.40;99.90;;;;;;8444644;28;19924;-71
2024/01/18 10:20:39;;;;;;;;;;;2.80;99.90;;;;;;8463079;28;20037;-71
2024/01/18 10:24:41;;;;;;;;;;;3.10;99.90;;;;;;8460000;28;19924;-71
2024/01/18 10:28:43;;;;;;;;;;;3.30;99.90;;;;;;8455822;27;19924;-71
2024/01/18 10:32:45;;;;;;;;;;;3.30;99.90;;;;;;8475932;27;19928;-71
2024/01/18 10:36:47;;;;;;;;;;;3.40;99.90;;;;;;8446631;28;19969;-71
2024/01/18 10:40:50;;;;;;;;;;;3.60;99.90;;;;;;8457119;28;19924;-72
2024/01/18 10:44:52;;;;;;;;;;;3.70;99.90;;;;;;8434107;28;19928;-72
2024/01/18 10:48:54;;;;;;;;;;;3.80;99.90;;;;;;8457770;28;19924;-72
2024/01/18 10:52:55;;;;;;;;;;;4.00;99.90;;;;;;8442990;28;19924;-72
2024/01/18 10:56:59;;;;;;;;;;;4.20;99.90;;;;;;8463453;27;19976;-72
2024/01/18 11:01:01;;;;;;;;;;;4.50;99.90;;;;;;8453367;28;20306;-72
2024/01/18 11:05:03;;;;;;;;;;;4.80;99.90;;;;;;8444895;28;19931;-73
2024/01/18 11:09:05;;;;;;;;;;;4.50;99.90;;;;;;8442391;27;19930;-72
2024/01/18 11:13:07;;;;;;;;;;;4.20;99.90;;;;;;8459138;27;19927;-73
2024/01/18 11:17:15;;;;;;;;;;;3.90;99.90;;;;;;8460807;28;19938;-73
2024/01/18 11:21:17;;;;;;;;;;;3.80;99.90;;;;;;8459343;28;20358;-73
2024/01/18 11:25:26;;;;;;;;;;;4.50;99.90;;;;;;8438405;27;20384;-73
2024/01/18 11:29:34;;;;;;;;;;;5.10;99.90;;;;;;8460391;28;19930;-73
2024/01/18 11:33:37;;;;;;;;;;;5.20;99.90;;;;;;8436916;28;19932;-73
2024/01/18 11:37:39;;;;;;;;;;;4.80;99.90;;;;;;8439435;28;19932;-73
2024/01/18 11:41:41;;;;;;;;;;;4.40;99.90;;;;;;8457399;27;20232;-73
2024/01/18 11:45:44;;;;;;;;;;;4.00;99.90;;;;;;8461545;28;19923;-72
2024/01/18 11:49:46;;;;;;;;;;;3.70;99.90;;;;;;8442672;28;19923;-72
2024/01/18 11:53:48;;;;;;;;;;;3.90;99.90;;;;;;8458713;28;20316;-72
2024/01/18 11:57:51;;;;;;;;;;;4.80;99.90;;;;;;8461241;28;20295;-72
2024/01/18 12:01:54;;;;;;;;;;;6.10;99.90;;;;;;8459543;28;19969;-73
2024/01/18 12:05:56;;;;;;;;;;;7.20;99.90;;;;;;8460052;28;19924;-72
2024/01/18 12:09:58;;;;;;;;;;;7.80;99.90;;;;;;8453532;28;19993;-72
2024/01/18 12:14:00;;;;;;;;;;;8.00;99.90;;;;;;8441451;28;19923;-72
2024/01/18 12:18:02;;;;;;;;;;;8.20;99.90;;;;;;8461180;28;19928;-72
2024/01/18 12:22:08;;;;;;;;;;;8.10;99.90;;;;;;8456682;27;19982;-72
2024/01/18 12:26:10;;;;;;;;;;;8.10;99.90;;;;;;8456247;27;19976;-72
2024/01/18 12:30:18;;;;;;;;;;;8.50;99.90;;;;;;8440380;27;19938;-72
2024/01/18 12:34:20;;;;;;;;;;;8.90;99.90;;;;;;8420531;28;20725;-72
2024/01/18 12:38:22;;;;;;;;;;;9.10;99.90;;;;;;8422740;28;20031;-72
2024/01/18 12:42:23;;;;;;;;;;;9.30;99.90;;;;;;8424619;28;19928;-72
2024/01/18 12:46:27;;;;;;;;;;;9.50;99.90;;;;;;8422902;28;21388;-72
2024/01/18 12:50:29;;;;;;;;;;;9.50;99.90;;;;;;8403022;28;20375;-72
2024/01/18 12:54:30;;;;;;;;;;;9.30;99.90;;;;;;8404559;27;19931;-72
2024/01/18 12:58:33;;;;;;;;;;;9.10;99.90;;;;;;8422126;28;20396;-72
2024/01/18 13:02:34;;;;;;;;;;;8.70;99.90;;;;;;8419420;28;20320;-72
2024/01/18 13:06:36;;;;;;;;;;;8.10;99.90;;;;;;8424810;28;19942;-72
2024/01/18 13:10:47;;;;;;;;;;;7.60;99.90;;;;;;8427055;28;19928;-72
2024/01/18 13:14:49;;;;;;;;;;;7.30;99.90;;;;;;8424033;28;19925;-72
2024/01/18 13:18:52;;;;;;;;;;;7.20;99.90;;;;;;8423085;27;19978;-72
2024/01/18 13:22:56;;;;;;;;;;;7.30;99.90;;;;;;8415396;28;19981;-73
2024/01/18 13:26:58;;;;;;;;;;;8.20;99.90;;;;;;8423301;28;19924;-72
2024/01/18 13:31:02;;;;;;;;;;;8.70;99.90;;;;;;8422631;28;20058;-73
2024/01/18 13:35:05;;;;;;;;;;;8.50;99.90;;;;;;8422594;28;19927;-72
2024/01/18 13:39:08;;;;;;;;;;;8.00;99.90;;;;;;8420841;28;19924;-72
2024/01/18 13:43:10;;;;;;;;;;;7.40;99.90;;;;;;8420600;28;19924;-72
2024/01/18 13:47:12;;;;;;;;;;;6.90;99.90;;;;;;8404997;28;19993;-73
2024/01/18 13:51:13;;;;;;;;;;;6.50;99.90;;;;;;8431932;28;19928;-72
2024/01/18 13:55:16;;;;;;;;;;;6.10;99.90;;;;;;8423091;28;19928;-72
2024/01/18 13:59:18;;;;;;;;;;;5.80;99.90;;;;;;8430385;28;19927;-72
2024/01/18 14:03:20;;;;;;;;;;;5.60;99.90;;;;;;8429342;28;19985;-72
2024/01/18 14:07:22;;;;;;;;;;;5.50;99.90;;;;;;8407859;27;19932;-72
2024/01/18 14:11:24;;;;;;;;;;;5.50;99.90;;;;;;8408758;28;19935;-73
2024/01/18 14:15:26;;;;;;;;;;;5.40;99.90;;;;;;8428289;27;20387;-72
2024/01/18 14:19:28;;;;;;;;;;;5.40;99.90;;;;;;8422386;28;19928;-72
2024/01/18 14:23:30;;;;;;;;;;;5.40;99.90;;;;;;8425998;28;19928;-72
2024/01/18 14:27:32;;;;;;;;;;;5.30;99.90;;;;;;8408274;28;19987;-72
2024/01/18 14:31:34;;;;;;;;;;;5.40;99.90;;;;;;8432871;28;19924;-72
2024/01/18 14:35:35;;;;;;;;;;;5.40;99.90;;;;;;8440182;28;20036;-73
2024/01/18 14:39:37;;;;;;;;;;;5.40;99.90;;;;;;8434548;27;19973;-72
2024/01/18 14:43:39;;;;;;;;;;;5.40;99.90;;;;;;8425675;27;20383;-72
2024/01/18 14:47:41;;;;;;;;;;;5.40;99.90;;;;;;8429115;28;19924;-72
2024/01/18 14:51:42;;;;;;;;;;;5.50;99.90;;;;;;8425263;28;19936;-72
2024/01/18 14:55:44;;;;;;;;;;;5.60;99.90;;;;;;8405807;28;20448;-72
2024/01/18 14:59:49;;;;;;;;;;;5.70;99.90;;;;;;8422474;28;20350;-72
2024/01/18 15:03:50;;;;;;;;;;;6.00;99.90;;;;;;8426901;28;19924;-72
2024/01/18 15:07:54;;;;;;;;;;;6.50;99.90;;;;;;8412618;28;19931;-72
2024/01/18 15:11:56;;;;;;;;;;;7.10;99.90;;;;;;8397956;28;19939;-72
2024/01/18 15:20:54;;;;;;;;;;;7.80;99.90;;;;;;8423757;28;20068;-72
2024/01/18 15:29:59;;;;;;;;;;;7.80;99.90;;;;;;8425328;28;21850;-77
2024/01/18 15:34:04;;;;;;;;;;;7.70;99.90;;;;;;8415481;28;19924;-77
2024/01/18 15:38:06;;;;;;;;;;;7.60;99.90;;;;;;8415881;28;19928;-77
2024/01/18 15:42:07;;;;;;;;;;;7.50;99.90;;;;;;8431182;28;19993;-77
2024/01/18 15:51:25;;;;;;;;;;;7.10;99.90;;;;;;8423586;28;20035;-77
2024/01/18 15:55:26;;;;;;;;;;;6.90;99.90;;;;;;8426487;28;20254;-77
2024/01/18 15:59:28;;;;;;;;;;;6.60;99.90;;;;;;8410649;28;20375;-76
2024/01/18 16:03:30;;;;;;;;;;;6.10;99.90;;;;;;8425386;28;19969;-76
2024/01/18 16:07:31;;;;;;;;;;;5.70;99.90;;;;;;8408306;28;19924;-77
2024/01/18 16:11:33;;;;;;;;;;;5.30;99.90;;;;;;8429794;28;19924;-78
2024/01/18 16:15:35;;;;;;;;;;;4.90;99.90;;;;;;8427267;27;20274;-77
2024/01/18 16:19:37;;;;;;;;;;;4.70;99.90;;;;;;8427466;28;19932;-76
2024/01/18 16:23:39;;;;;;;;;;;4.40;99.90;;;;;;8426626;28;19932;-76
2024/01/18 16:27:40;;;;;;;;;;;4.10;99.90;;;;;;8434236;28;20275;-76
2024/01/18 16:31:42;;;;;;;;;;;3.80;99.90;;;;;;8425486;28;19932;-76
2024/01/18 16:35:44;;;;;;;;;;;3.50;99.90;;;;;;8419675;28;19961;-77
2024/01/18 16:39:48;;;;;;;;;;;3.30;99.90;;;;;;8426786;27;19924;-76
2024/01/18 16:43:52;;;;;;;;;;;3.10;99.90;;;;;;8430368;28;19924;-76
2024/01/18 16:47:54;;;;;;;;;;;2.90;99.90;;;;;;8425516;28;19924;-76
2024/01/18 16:51:56;;;;;;;;;;;2.80;99.90;;;;;;8424136;28;19951;-76
2024/01/18 16:55:58;;;;;;;;;;;2.70;99.90;;;;;;8409626;28;19946;-76
2024/01/18 16:59:59;;;;;;;;;;;2.50;99.90;;;;;;8428458;28;19928;-76
2024/01/18 17:04:14;;;;;;;;;;;2.40;99.90;;;;;;8427482;28;19963;-76
2024/01/18 17:08:16;;;;;;;;;;;2.40;99.90;;;;;;8423218;28;19924;-76
2024/01/18 17:12:18;;;;;;;;;;;2.30;99.90;;;;;;8425951;28;19924;-76
2024/01/18 17:16:19;;;;;;;;;;;2.20;99.90;;;;;;8432156;28;20383;-77
2024/01/18 17:20:21;;;;;;;;;;;2.10;99.90;;;;;;8406778;28;19928;-77
2024/01/18 17:24:25;;;;;;;;;;;2.00;99.90;;;;;;8409415;28;19959;-77
2024/01/18 17:28:27;;;;;;;;;;;2.00;99.90;;;;;;8427258;28;19928;-77
2024/01/18 17:32:28;;;;;;;;;;;1.90;99.90;;;;;;8423257;28;19958;-77
2024/01/18 17:36:30;;;;;;;;;;;1.80;99.90;;;;;;8434169;28;19997;-76
2024/01/18 17:40:32;;;;;;;;;;;1.80;99.90;;;;;;8440421;28;19928;-76
2024/01/18 17:44:34;;;;;;;;;;;1.70;99.90;;;;;;8416159;28;20399;-76
2024/01/18 17:48:36;;;;;;;;;;;1.60;99.90;;;;;;8432523;28;20402;-77
2024/01/18 17:52:38;;;;;;;;;;;1.60;99.90;;;;;;8424028;28;20034;-77
2024/01/18 17:56:40;;;;;;;;;;;1.60;99.90;;;;;;8415965;28;19928;-77
2024/01/18 18:05:46;;;;;;;;;;;1.40;99.90;;;;;;8426848;28;19974;-77
2024/01/18 18:09:48;;;;;;;;;;;1.40;99.90;;;;;;8424520;28;19946;-77
2024/01/18 18:13:50;;;;;;;;;;;1.30;99.90;;;;;;8407220;28;20407;-77
2024/01/18 18:17:52;;;;;;;;;;;1.30;99.90;;;;;;8423323;28;20665;-77
2024/01/18 18:22:03;;;;;;;;;;;1.30;99.90;;;;;;8427640;28;20027;-77
2024/01/18 18:26:06;;;;;;;;;;;1.20;99.90;;;;;;8416346;28;20361;-76
2024/01/18 18:35:12;;;;;;;;;;;1.10;99.90;;;;;;8425861;28;19919;-77
2024/01/18 18:39:13;;;;;;;;;;;1.00;99.90;;;;;;8444327;27;19934;-77
2024/01/18 18:43:16;;;;;;;;;;;0.90;99.90;;;;;;8428336;28;20284;-77
2024/01/18 18:47:18;;;;;;;;;;;0.90;99.90;;;;;;8431847;28;19925;-77
2024/01/18 18:51:20;;;;;;;;;;;0.80;99.90;;;;;;8429018;28;19927;-77
2024/01/18 18:55:22;;;;;;;;;;;0.80;99.90;;;;;;8425751;27;20359;-77
2024/01/18 18:59:23;;;;;;;;;;;0.70;99.90;;;;;;8420860;28;20026;-77
2024/01/18 19:08:29;;;;;;;;;;;0.50;99.90;;;;;;8429523;28;19923;-77
2024/01/18 19:12:30;;;;;;;;;;;0.50;99.90;;;;;;8430817;28;19924;-77
2024/01/18 19:16:47;;;;;;;;;;;0.40;99.90;;;;;;8424993;27;20423;-76
2024/01/18 19:25:53;;;;;;;;;;;0.40;99.90;;;;;;8429770;28;19944;-77
2024/01/18 19:29:54;;;;;;;;;;;0.30;99.90;;;;;;8442219;27;19966;-77
2024/01/18 19:33:56;;;;;;;;;;;0.20;99.90;;;;;;8433251;28;19939;-77
2024/01/18 19:37:59;;;;;;;;;;;0.30;99.90;;;;;;8428842;28;19985;-77
2024/01/18 19:42:01;;;;;;;;;;;0.20;99.90;;;;;;8421844;28;19946;-77
2024/01/18 19:46:03;;;;;;;;;;;0.20;99.90;;;;;;8397897;28;19940;-77
2024/01/18 19:50:05;;;;;;;;;;;0.10;99.90;;;;;;8431383;28;20348;-77
2024/01/18 19:59:10;;;;;;;;;;;0.10;99.90;;;;;;8428528;28;20026;-77
2024/01/18 20:03:12;;;;;;;;;;;0.10;99.90;;;;;;8425744;28;19932;-77
2024/01/18 20:07:13;;;;;;;;;;;0.00;99.90;;;;;;8419222;28;19966;-77
2024/01/18 20:11:17;;;;;;;;;;;-0.10;99.90;;;;;;8417004;28;20366;-77
2024/01/18 20:15:19;;;;;;;;;;;-0.10;99.90;;;;;;8421396;28;19924;-77
2024/01/18 20:19:20;;;;;;;;;;;-0.20;99.90;;;;;;8436558;28;19924;-77
2024/01/18 20:23:22;;;;;;;;;;;-0.20;99.90;;;;;;8434039;28;20321;-77
2024/01/18 20:27:24;;;;;;;;;;;-0.30;99.90;;;;;;8423239;28;20387;-77
2024/01/18 20:31:26;;;;;;;;;;;-0.30;99.90;;;;;;8424317;28;19933;-78
2024/01/18 20:35:27;;;;;;;;;;;-0.30;99.90;;;;;;8429164;27;19932;-77
2024/01/18 20:39:29;;;;;;;;;;;-0.30;99.90;;;;;;8425923;28;20339;-77
2024/01/18 20:43:33;;;;;;;;;;;-0.40;99.90;;;;;;8412317;28;20345;-77
2024/01/18 20:47:35;;;;;;;;;;;-0.40;99.90;;;;;;8412927;28;19932;-77
2024/01/18 20:51:37;;;;;;;;;;;-0.40;99.90;;;;;;8429612;28;19924;-77
2024/01/18 20:55:39;;;;;;;;;;;-0.50;99.90;;;;;;8413070;28;19942;-77
2024/01/18 20:59:40;;;;;;;;;;;-0.50;99.90;;;;;;8421313;28;20448;-77
2024/01/18 21:03:42;;;;;;;;;;;-0.60;99.90;;;;;;8427017;28;19927;-77
2024/01/18 21:07:44;;;;;;;;;;;-0.60;99.90;;;;;;8406686;28;19928;-78
2024/01/18 21:11:46;;;;;;;;;;;-0.70;99.90;;;;;;8412187;28;19967;-77
2024/01/18 21:15:48;;;;;;;;;;;-0.70;99.90;;;;;;8428857;28;19974;-77
2024/01/18 21:19:49;;;;;;;;;;;-0.80;99.90;;;;;;8418239;28;19928;-77
2024/01/18 21:23:51;;;;;;;;;;;-0.70;99.90;;;;;;8419871;28;20347;-78
2024/01/18 21:27:53;;;;;;;;;;;-0.70;99.90;;;;;;8420167;28;20025;-77
2024/01/18 21:31:55;;;;;;;;;;;-0.70;99.90;;;;;;8416607;28;19951;-78
2024/01/18 21:35:57;;;;;;;;;;;-0.70;99.90;;;;;;8409444;28;19928;-77
2024/01/18 21:39:58;;;;;;;;;;;-0.70;99.90;;;;;;8427245;28;20359;-77
2024/01/18 21:44:00;;;;;;;;;;;-0.60;99.90;;;;;;8427866;28;20391;-77
2024/01/18 21:48:02;;;;;;;;;;;-0.50;99.90;;;;;;8426124;28;19927;-77
2024/01/18 21:52:04;;;;;;;;;;;-0.40;99.90;;;;;;8410867;28;19924;-77
2024/01/18 21:56:07;;;;;;;;;;;-0.40;99.90;;;;;;8426144;28;19931;-77
2024/01/18 22:00:09;;;;;;;;;;;-0.30;99.90;;;;;;8416653;28;19970;-77
2024/01/18 22:04:29;;;;;;;;;;;-0.30;99.90;;;;;;8454284;28;19924;-77
2024/01/18 22:08:31;;;;;;;;;;;-0.30;99.90;;;;;;8437227;28;19924;-77
2024/01/18 22:12:32;;;;;;;;;;;-0.30;99.90;;;;;;8463424;28;20132;-77
2024/01/18 22:16:34;;;;;;;;;;;-0.40;99.90;;;;;;8463186;28;20295;-77
2024/01/18 22:20:36;;;;;;;;;;;-0.50;99.90;;;;;;8446349;28;20288;-78
2024/01/18 22:24:55;;;;;;;;;;;-0.60;99.90;;;;;;8441123;28;19944;-77
2024/01/18 22:28:58;;;;;;;;;;;-0.60;99.90;;;;;;8458041;28;19970;-77
2024/01/18 22:32:59;;;;;;;;;;;-0.50;99.90;;;;;;8463176;28;19924;-78
2024/01/18 22:37:01;;;;;;;;;;;-0.40;99.90;;;;;;8461900;28;19923;-77
2024/01/18 22:41:03;;;;;;;;;;;-0.30;99.90;;;;;;8461264;27;19924;-78
2024/01/18 22:45:05;;;;;;;;;;;-0.20;99.90;;;;;;8444522;28;20256;-77
2024/01/18 22:49:07;;;;;;;;;;;-0.20;99.90;;;;;;8456128;28;19930;-77
2024/01/18 22:53:09;;;;;;;;;;;-0.20;99.90;;;;;;8443851;28;19923;-77
2024/01/18 22:57:11;;;;;;;;;;;-0.20;99.90;;;;;;8460942;28;20019;-77
2024/01/18 23:01:12;;;;;;;;;;;-0.20;99.90;;;;;;8463089;27;19950;-78
2024/01/18 23:05:14;;;;;;;;;;;-0.30;99.90;;;;;;8460910;28;20410;-77
2024/01/18 23:09:16;;;;;;;;;;;-0.30;99.90;;;;;;8459428;28;19927;-77
2024/01/18 23:13:18;;;;;;;;;;;-0.40;99.90;;;;;;8465371;27;19924;-78
2024/01/18 23:17:19;;;;;;;;;;;-0.30;99.90;;;;;;8460748;28;19931;-77
2024/01/18 23:21:21;;;;;;;;;;;-0.40;99.90;;;;;;8435662;27;20664;-77
2024/01/18 23:25:23;;;;;;;;;;;-0.40;99.90;;;;;;8449485;28;20363;-77
2024/01/18 23:29:24;;;;;;;;;;;-0.50;99.90;;;;;;8452685;28;19969;-77
2024/01/18 23:33:26;;;;;;;;;;;-0.60;99.90;;;;;;8437575;28;20393;-77
2024/01/18 23:37:28;;;;;;;;;;;-0.60;99.90;;;;;;8442159;28;19924;-77
2024/01/18 23:41:29;;;;;;;;;;;-0.60;99.90;;;;;;8440325;28;20370;-77
2024/01/18 23:45:31;;;;;;;;;;;-0.50;99.90;;;;;;8461518;28;19924;-77
2024/01/18 23:49:33;;;;;;;;;;;-0.30;99.90;;;;;;8460683;28;19923;-78
2024/01/18 23:53:35;;;;;;;;;;;-0.10;99.90;;;;;;8441572;28;20329;-78
2024/01/18 23:57:37;;;;;;;;;;;0.10;99.90;;;;;;8461153;28;19923;-78
